Time;durP1;ratioP1;P1;durP2;ratioP2;P2;SDS_P1;SDS_P2;PMS_P1;PMS_P2;Temp;Humidity;BMP_temperature;BMP_pressure;BME280_temperature;BME280_humidity;BME280_pressure;Samples;Min_cycle;Max_cycle;Signal;HPM_P1;HPM_P2
2023/02/02 00:00:47;;;;;;;62.30;58.50;;;;;;;2.74;100.00;101007.59;5111210;28;20051;-81
2023/02/02 00:03:15;;;;;;;54.47;51.38;;;;;;;3.00;100.00;101004.28;5084247;28;20052;-81
2023/02/02 00:05:46;;;;;;;52.65;49.47;;;;;;;3.22;100.00;101003.00;5110288;28;20048;-81
2023/02/02 00:08:13;;;;;;;52.80;49.88;;;;;;;3.47;100.00;100998.75;5095496;28;20471;-81
2023/02/02 00:10:40;;;;;;;53.63;50.53;;;;;;;3.19;100.00;100988.38;5109792;28;20040;-81
2023/02/02 00:13:07;;;;;;;55.33;52.13;;;;;;;3.25;100.00;100999.25;5113696;28;20051;-81
2023/02/02 00:15:33;;;;;;;50.17;47.03;;;;;;;3.14;100.00;100998.47;5114512;28;20051;-81
2023/02/02 00:18:00;;;;;;;51.15;47.95;;;;;;;3.39;100.00;100991.66;5114500;28;20051;-81
2023/02/02 00:20:28;;;;;;;52.65;49.13;;;;;;;3.43;100.00;100998.25;5114082;28;20043;-81
2023/02/02 00:22:56;;;;;;;49.72;46.63;;;;;;;3.31;100.00;100994.22;5113071;28;20043;-81
2023/02/02 00:25:23;;;;;;;49.95;46.92;;;;;;;3.33;100.00;101004.53;5108993;28;20463;-81
2023/02/02 00:27:50;;;;;;;54.17;50.88;;;;;;;3.24;100.00;101003.69;5113563;28;20048;-80
2023/02/02 00:30:17;;;;;;;52.85;49.75;;;;;;;3.26;100.00;100998.25;5114237;28;20470;-80
2023/02/02 00:32:47;;;;;;;56.67;53.28;;;;;;;3.50;100.00;100998.44;5113342;28;20092;-81
2023/02/02 00:35:14;;;;;;;54.88;51.58;;;;;;;3.28;100.00;101004.19;5105782;28;20056;-81
2023/02/02 00:37:41;;;;;;;53.30;50.20;;;;;;;3.43;100.00;101000.06;5114718;28;20043;-81
2023/02/02 00:40:11;;;;;;;56.83;53.47;;;;;;;3.18;100.00;100997.22;5111754;28;20485;-81
2023/02/02 00:42:37;;;;;;;58.65;55.05;;;;;;;3.29;100.00;100997.94;5111315;28;20048;-81
2023/02/02 00:45:16;;;;;;;57.50;54.17;;;;;;;3.49;100.00;100996.81;5113479;28;20104;-80
2023/02/02 00:47:44;;;;;;;54.22;50.83;;;;;;;3.46;100.00;101004.19;5113468;28;20054;-81
2023/02/02 00:50:13;;;;;;;56.85;53.50;;;;;;;3.42;100.00;101003.66;5107656;28;20501;-81
2023/02/02 00:52:40;;;;;;;52.53;49.22;;;;;;;3.27;100.00;100997.28;5114018;28;20047;-80
2023/02/02 00:55:10;;;;;;;51.58;48.28;;;;;;;3.02;100.00;100993.63;5113139;28;20462;-81
2023/02/02 00:57:37;;;;;;;56.78;53.50;;;;;;;2.93;100.00;100987.47;5113360;28;20113;-81
2023/02/02 01:00:06;;;;;;;55.83;52.63;;;;;;;3.26;100.00;100996.44;5113962;28;20051;-81
2023/02/02 01:02:33;;;;;;;54.90;51.40;;;;;;;3.03;100.00;101001.34;5108706;28;20048;-81
2023/02/02 01:05:00;;;;;;;52.08;49.08;;;;;;;3.10;100.00;101007.63;5108928;28;20044;-80
2023/02/02 01:07:27;;;;;;;53.15;49.75;;;;;;;3.03;100.00;100993.47;5114218;28;20100;-80
2023/02/02 01:09:53;;;;;;;59.70;56.20;;;;;;;3.00;100.00;100998.22;5112400;28;20047;-81
2023/02/02 01:12:21;;;;;;;54.92;51.63;;;;;;;2.90;100.00;100995.63;5112785;28;20043;-80
2023/02/02 01:14:48;;;;;;;56.72;53.40;;;;;;;2.74;100.00;100980.56;5113528;28;20393;-80
2023/02/02 01:17:15;;;;;;;54.20;50.42;;;;;;;2.67;100.00;100995.25;5109136;28;20047;-80
2023/02/02 01:19:42;;;;;;;56.28;52.75;;;;;;;2.75;100.00;101003.19;5113651;28;20048;-81
2023/02/02 01:24:50;;;;;;;54.78;51.38;;;;;;;2.71;100.00;100988.72;5084893;27;20956;-81
2023/02/02 01:27:17;;;;;;;57.03;53.83;;;;;;;2.91;100.00;100976.31;5079355;28;20053;-80
2023/02/02 01:29:44;;;;;;;55.53;52.13;;;;;;;2.77;100.00;100984.69;5079029;28;20102;-81
2023/02/02 01:32:11;;;;;;;53.88;50.47;;;;;;;2.79;100.00;100980.13;5079713;28;20048;-81
2023/02/02 01:34:40;;;;;;;56.33;52.92;;;;;;;2.62;100.00;100979.13;5079899;28;20084;-80
2023/02/02 01:37:07;;;;;;;57.72;53.92;;;;;;;2.71;100.00;100986.09;5078515;28;20057;-80
2023/02/02 01:39:34;;;;;;;63.20;59.58;;;;;;;2.53;100.00;100972.94;5084484;28;20057;-80
2023/02/02 01:42:02;;;;;;;56.97;53.40;;;;;;;2.86;100.00;100974.13;5081157;28;20540;-81
2023/02/02 01:45:06;;;;;;;56.55;53.13;;;;;;;2.75;100.00;100975.19;5073508;28;20109;-80
2023/02/02 01:47:37;;;;;;;61.60;57.92;;;;;;;2.63;100.00;100981.59;5074463;28;20053;-80
2023/02/02 01:50:06;;;;;;;59.47;55.58;;;;;;;2.37;100.00;100980.66;5082235;28;20044;-80
2023/02/02 01:52:35;;;;;;;65.32;61.35;;;;;;;2.36;100.00;100979.81;5083090;28;20044;-81
2023/02/02 01:55:07;;;;;;;62.63;58.55;;;;;;;2.37;100.00;100978.03;5083821;28;20055;-80
2023/02/02 01:57:40;;;;;;;63.03;59.20;;;;;;;2.40;100.00;100982.97;5078890;28;20102;-80
2023/02/02 02:00:11;;;;;;;59.80;56.20;;;;;;;2.68;100.00;100984.59;5074064;28;20125;-80
2023/02/02 02:02:39;;;;;;;60.08;56.53;;;;;;;2.45;100.00;100986.81;5079907;28;20088;-80
2023/02/02 02:05:09;;;;;;;59.20;55.33;;;;;;;2.38;100.00;100995.41;5066194;28;20106;-80
2023/02/02 02:07:37;;;;;;;60.75;56.92;;;;;;;2.43;100.00;100991.38;5072900;28;20057;-80
2023/02/02 02:10:04;;;;;;;59.97;55.85;;;;;;;2.49;100.00;101001.28;5075256;28;20468;-81
2023/02/02 02:12:31;;;;;;;58.47;54.53;;;;;;;2.64;100.00;100992.91;5075368;28;20200;-80
2023/02/02 02:18:08;;;;;;;55.75;52.05;;;;;;;2.00;100.00;100989.34;5033303;28;20144;-80
2023/02/02 02:27:37;;;;;;;64.68;60.47;;;;;;;2.75;100.00;100996.16;5070444;28;20422;-81
2023/02/02 02:30:54;;;;;;;63.50;59.47;;;;;;;1.99;100.00;100999.00;5063268;28;20468;-81
2023/02/02 02:33:27;;;;;;;64.35;60.08;;;;;;;2.28;100.00;100988.41;5070075;28;20505;-80
2023/02/02 02:35:59;;;;;;;59.53;55.53;;;;;;;2.42;100.00;100996.75;5069039;28;20044;-80
2023/02/02 02:38:35;;;;;;;63.90;59.67;;;;;;;2.60;100.00;100994.16;5056856;28;20103;-80
2023/02/02 02:41:06;;;;;;;62.17;58.05;;;;;;;2.63;100.00;100981.59;5064233;28;20049;-80
2023/02/02 02:43:36;;;;;;;64.13;60.13;;;;;;;2.85;100.00;100982.97;5064382;28;20118;-81
2023/02/02 02:46:04;;;;;;;66.55;62.40;;;;;;;2.58;100.00;100983.00;5062630;28;20110;-80
2023/02/02 02:48:33;;;;;;;88.93;84.10;;;;;;;2.87;100.00;100978.38;5063776;28;20102;-80
2023/02/02 02:51:29;;;;;;;70.00;65.82;;;;;;;2.96;100.00;100974.03;5064280;28;20491;-81
2023/02/02 02:53:56;;;;;;;63.45;59.75;;;;;;;2.64;100.00;100988.50;5051302;28;20041;-81
2023/02/02 02:56:31;;;;;;;60.97;57.38;;;;;;;2.42;100.00;100984.47;5054978;28;20045;-80
2023/02/02 02:59:07;;;;;;;64.65;60.72;;;;;;;2.29;100.00;100976.94;5065170;28;20048;-80
2023/02/02 03:01:44;;;;;;;66.13;61.97;;;;;;;2.68;100.00;100983.78;5058510;28;20053;-81
2023/02/02 03:04:22;;;;;;;63.30;59.42;;;;;;;2.66;100.00;100986.56;5060869;28;20137;-80
2023/02/02 03:06:54;;;;;;;60.33;56.25;;;;;;;2.60;100.00;100979.25;5066122;28;20045;-81
2023/02/02 03:09:36;;;;;;;63.75;59.75;;;;;;;2.48;100.00;100977.81;5055876;28;20041;-80
2023/02/02 03:12:04;;;;;;;61.13;57.47;;;;;;;2.49;100.00;100984.72;5038738;28;20053;-80
2023/02/02 03:14:34;;;;;;;60.03;56.45;;;;;;;2.43;100.00;100988.75;5049308;28;20048;-80
2023/02/02 03:17:02;;;;;;;62.38;58.38;;;;;;;2.60;100.00;100991.53;5051659;28;20045;-81
2023/02/02 03:19:33;;;;;;;62.60;58.67;;;;;;;2.55;100.00;100991.19;5059782;28;20049;-81
2023/02/02 03:22:01;;;;;;;62.58;58.47;;;;;;;2.58;100.00;100990.88;5057911;28;20045;-81
2023/02/02 03:24:29;;;;;;;59.10;54.70;;;;;;;2.65;100.00;101008.50;5062007;28;20048;-80
2023/02/02 03:26:58;;;;;;;64.03;60.13;;;;;;;2.67;100.00;101005.72;5068102;28;20510;-80
2023/02/02 03:29:26;;;;;;;58.72;54.72;;;;;;;2.71;100.00;100997.41;5046682;28;20052;-81
2023/02/02 03:31:53;;;;;;;54.53;51.13;;;;;;;2.56;100.00;100995.44;5056401;28;20115;-80
2023/02/02 03:34:23;;;;;;;63.50;59.38;;;;;;;2.82;100.00;100992.94;5055160;28;20045;-81
2023/02/02 03:36:53;;;;;;;58.65;55.25;;;;;;;2.31;100.00;101008.25;5047131;28;20053;-80
2023/02/02 03:39:25;;;;;;;66.40;62.28;;;;;;;2.50;100.00;101010.78;5055284;28;20049;-81
2023/02/02 03:41:53;;;;;;;;;;;;;;;2.56;100.00;101001.50;5053757;28;20056;-80
2023/02/02 03:44:34;;;;;;;63.72;59.78;;;;;;;2.75;100.00;101004.03;5057697;28;19928;-81
2023/02/02 03:47:02;;;;;;;60.50;56.80;;;;;;;2.60;100.00;101007.28;5056297;28;20048;-81
2023/02/02 03:49:29;;;;;;;58.80;54.67;;;;;;;2.65;100.00;101016.34;5058622;28;20048;-80
2023/02/02 03:51:57;;;;;;;62.75;58.97;;;;;;;2.42;100.00;101013.31;5066354;28;20106;-80
2023/02/02 03:54:24;;;;;;;64.13;60.13;;;;;;;2.71;100.00;101015.78;5059658;28;20049;-81
2023/02/02 03:56:50;;;;;;;60.17;56.70;;;;;;;2.35;100.00;101014.84;5066693;28;20106;-81
2023/02/02 03:59:17;;;;;;;60.75;56.88;;;;;;;2.46;100.00;101016.47;5053770;28;20040;-80
2023/02/02 04:01:44;;;;;;;63.63;59.83;;;;;;;2.42;100.00;101017.72;5057927;28;20053;-81
2023/02/02 04:04:10;;;;;;;52.30;49.30;;;;;;;2.88;100.00;101018.59;5059348;28;20099;-81
2023/02/02 04:06:37;;;;;;;54.97;51.50;;;;;;;2.60;100.00;101012.53;5058530;28;20103;-81
2023/02/02 04:09:05;;;;;;;56.97;53.17;;;;;;;2.19;100.00;101009.41;5058906;28;20501;-81
2023/02/02 04:11:32;;;;;;;51.55;48.35;;;;;;;2.48;100.00;101018.00;5057725;28;20498;-81
2023/02/02 04:13:59;;;;;;;59.53;55.75;;;;;;;2.28;100.00;101026.91;5062633;28;20041;-80
2023/02/02 04:16:25;;;;;;;56.38;52.97;;;;;;;2.17;100.00;101011.34;5063817;28;20048;-81
2023/02/02 04:18:52;;;;;;;59.58;55.78;;;;;;;2.28;100.00;101024.28;5054550;28;20102;-81
2023/02/02 04:21:19;;;;;;;57.63;54.10;;;;;;;2.25;100.00;101022.78;5065341;28;20486;-81
2023/02/02 04:23:46;;;;;;;58.38;54.53;;;;;;;2.21;100.00;101017.94;5055748;28;20122;-80
2023/02/02 04:26:14;;;;;;;57.80;54.08;;;;;;;2.06;100.00;101025.47;5063160;28;20067;-80
2023/02/02 04:28:41;;;;;;;61.95;58.42;;;;;;;2.45;100.00;101028.75;5053211;28;20538;-81
2023/02/02 04:31:07;;;;;;;63.45;59.90;;;;;;;2.54;100.00;101029.66;5054350;28;20041;-81
2023/02/02 04:33:35;;;;;;;63.42;59.38;;;;;;;2.61;100.00;101019.44;4358464;28;10021974;-81
2023/02/02 04:36:02;;;;;;;60.20;56.42;;;;;;;2.56;100.00;101030.34;5030558;28;20071;-82
2023/02/02 04:38:28;;;;;;;56.10;52.67;;;;;;;2.03;100.00;101028.38;5041377;28;20045;-81
2023/02/02 04:40:55;;;;;;;55.30;51.75;;;;;;;2.11;100.00;101036.31;5036041;28;20049;-81
2023/02/02 04:43:23;;;;;;;56.05;52.65;;;;;;;2.38;100.00;101032.91;4684294;28;10000390;-80
2023/02/02 04:45:55;;;;;;;59.40;55.47;;;;;;;2.23;100.00;101032.56;5029086;28;20053;-81
2023/02/02 04:48:21;;;;;;;56.60;53.22;;;;;;;2.19;100.00;101038.25;5035723;28;20577;-81
2023/02/02 04:50:48;;;;;;;56.53;52.72;;;;;;;2.44;100.00;101036.75;5030482;28;20049;-80
2023/02/02 04:53:15;;;;;;;53.22;50.13;;;;;;;2.64;100.00;101029.63;5033402;28;20106;-80
2023/02/02 04:55:41;;;;;;;51.67;48.67;;;;;;;2.72;100.00;101030.56;5031993;28;20041;-82
2023/02/02 04:58:08;;;;;;;53.15;49.95;;;;;;;2.24;100.00;101036.00;5032012;28;20134;-81
2023/02/02 05:00:36;;;;;;;49.55;46.45;;;;;;;2.60;100.00;101033.50;5032904;28;20044;-81
2023/02/02 05:03:03;;;;;;;50.17;47.17;;;;;;;2.31;100.00;101031.03;5036323;28;20053;-80
2023/02/02 05:05:30;;;;;;;53.78;50.35;;;;;;;2.50;100.00;101038.81;5034386;28;20037;-81
2023/02/02 05:07:56;;;;;;;51.40;48.25;;;;;;;2.09;100.00;101034.81;5044227;28;20493;-80
2023/02/02 05:10:23;;;;;;;52.85;49.55;;;;;;;2.26;100.00;101031.44;5048146;28;20045;-81
2023/02/02 05:12:52;;;;;;;51.20;48.15;;;;;;;2.09;100.00;101034.81;5058954;28;20477;-80
2023/02/02 05:15:20;;;;;;;50.75;47.65;;;;;;;2.42;100.00;101028.19;5061734;28;20037;-81
2023/02/02 05:17:48;;;;;;;50.15;47.13;;;;;;;2.25;100.00;101030.63;5050581;28;20052;-81
2023/02/02 05:20:15;;;;;;;50.67;47.33;;;;;;;2.94;100.00;101031.13;5061773;28;20052;-81
2023/02/02 05:22:42;;;;;;;50.72;47.53;;;;;;;2.79;100.00;101030.78;5062880;28;20107;-80
2023/02/02 05:25:10;;;;;;;50.78;47.50;;;;;;;2.81;100.00;101020.94;5052286;28;20041;-80
2023/02/02 05:27:37;;;;;;;48.78;45.67;;;;;;;2.74;100.00;101028.59;5052468;28;20045;-80
2023/02/02 05:30:04;;;;;;;48.67;45.70;;;;;;;2.56;100.00;101030.34;5052105;28;20053;-81
2023/02/02 05:32:31;;;;;;;47.95;44.85;;;;;;;2.17;100.00;101038.38;5062230;28;20052;-81
2023/02/02 05:34:59;;;;;;;47.80;44.80;;;;;;;2.65;100.00;101036.53;5050630;28;20398;-81
2023/02/02 05:37:26;;;;;;;47.75;44.50;;;;;;;2.26;100.00;101042.75;5050810;28;20506;-80
2023/02/02 05:39:53;;;;;;;46.78;43.63;;;;;;;2.56;100.00;101053.94;5049296;28;20041;-80
2023/02/02 05:45:06;;;;;;;47.08;44.10;;;;;;;2.63;100.00;101054.19;5054719;28;20489;-81
2023/02/02 05:47:34;;;;;;;48.55;45.30;;;;;;;2.51;100.00;101061.41;5061141;28;20100;-81
2023/02/02 05:50:02;;;;;;;47.42;44.42;;;;;;;3.15;100.00;101051.81;5062395;28;20489;-81
2023/02/02 05:52:33;;;;;;;46.67;43.85;;;;;;;2.73;100.00;101066.28;5065596;28;20044;-80
2023/02/02 05:55:00;;;;;;;46.88;43.67;;;;;;;2.49;100.00;101069.44;5058194;28;20094;-81
2023/02/02 05:57:27;;;;;;;45.55;42.80;;;;;;;2.46;100.00;101066.28;5054045;28;20071;-81
2023/02/02 05:59:53;;;;;;;44.80;42.00;;;;;;;2.43;100.00;101067.41;5058163;28;20187;-81
2023/02/02 06:02:20;;;;;;;44.40;41.63;;;;;;;2.46;100.00;101072.34;5052618;28;20110;-81
2023/02/02 06:04:47;;;;;;;44.85;41.95;;;;;;;2.29;100.00;101066.06;5040117;28;20053;-81
2023/02/02 06:07:15;;;;;;;44.47;41.80;;;;;;;2.45;100.00;101067.25;5046197;28;20529;-81
2023/02/02 06:09:42;;;;;;;48.60;45.67;;;;;;;2.85;100.00;101059.06;5057794;28;20099;-81
2023/02/02 06:12:09;;;;;;;50.47;47.20;;;;;;;2.63;100.00;101062.91;5061494;28;20059;-81
2023/02/02 06:14:35;;;;;;;50.35;46.85;;;;;;;2.47;100.00;101068.75;5065047;28;20040;-81
2023/02/02 06:17:02;;;;;;;47.25;44.45;;;;;;;2.43;100.00;101064.78;5063348;28;20560;-80
2023/02/02 06:19:47;;;;;;;46.30;43.40;;;;;;;2.41;100.00;101053.59;5057451;28;20056;-81
2023/02/02 06:22:15;;;;;;;50.78;47.65;;;;;;;2.59;100.00;101065.94;5022074;28;20457;-80
2023/02/02 06:24:45;;;;;;;51.22;47.95;;;;;;;3.05;100.00;101059.75;5052781;28;20094;-81
2023/02/02 06:27:12;;;;;;;50.38;47.28;;;;;;;2.64;100.00;101067.19;5061170;28;20107;-81
2023/02/02 06:29:38;;;;;;;48.20;45.20;;;;;;;3.12;100.00;101079.19;5060840;28;20492;-81
2023/02/02 06:32:05;;;;;;;49.28;46.08;;;;;;;2.82;100.00;101072.47;5067261;28;20269;-81
2023/02/02 06:34:32;;;;;;;50.97;47.80;;;;;;;2.67;100.00;101073.94;5067086;28;20098;-81
2023/02/02 06:36:58;;;;;;;49.55;46.40;;;;;;;3.05;100.00;101072.88;5056577;28;20563;-81
2023/02/02 06:39:26;;;;;;;54.25;50.60;;;;;;;2.73;100.00;101082.03;5061737;28;20057;-81
2023/02/02 06:41:53;;;;;;;49.63;46.53;;;;;;;2.59;100.00;101079.88;5065266;28;20048;-81
2023/02/02 06:44:20;;;;;;;49.42;46.22;;;;;;;3.02;100.00;101067.09;5063762;28;20052;-81
2023/02/02 06:46:47;;;;;;;50.97;47.67;;;;;;;2.83;100.00;101066.25;5064236;28;20052;-81
2023/02/02 06:49:13;;;;;;;53.95;50.38;;;;;;;2.94;100.00;101068.66;5064359;28;20106;-81
2023/02/02 06:51:40;;;;;;;52.40;48.90;;;;;;;3.47;100.00;101056.53;5062464;28;20477;-81
2023/02/02 06:54:07;;;;;;;50.67;47.50;;;;;;;3.42;100.00;101062.25;5048669;28;20475;-81
2023/02/02 06:56:35;;;;;;;51.70;48.38;;;;;;;3.77;100.00;101059.72;5063582;28;20465;-81
2023/02/02 06:59:02;;;;;;;49.90;46.35;;;;;;;4.09;100.00;101041.56;5061427;28;20044;-81
2023/02/02 07:01:28;;;;;;;52.25;48.70;;;;;;;3.60;100.00;101054.38;5056556;28;20483;-81
2023/02/02 07:03:56;;;;;;;52.97;49.78;;;;;;;3.92;100.00;101054.75;5065851;28;20053;-81
2023/02/02 07:06:25;;;;;;;53.45;50.10;;;;;;;3.93;100.00;101059.84;5056088;28;20052;-81
2023/02/02 07:08:52;;;;;;;51.47;48.38;;;;;;;3.62;100.00;101046.31;5053414;28;20143;-81
2023/02/02 07:11:19;;;;;;;47.85;44.85;;;;;;;3.65;100.00;101067.03;5066876;28;20079;-81
2023/02/02 07:13:48;;;;;;;47.60;44.67;;;;;;;4.22;100.00;101070.06;5052554;28;20048;-81
2023/02/02 07:16:16;;;;;;;49.63;46.53;;;;;;;4.33;100.00;101075.06;5062579;28;20114;-81
2023/02/02 07:18:43;;;;;;;48.83;45.72;;;;;;;4.46;100.00;101073.78;5061717;28;20052;-81
2023/02/02 07:21:17;;;;;;;52.22;49.13;;;;;;;4.30;100.00;101072.72;5058871;28;20102;-81
2023/02/02 07:23:44;;;;;;;51.03;48.00;;;;;;;4.85;100.00;101082.00;5070293;28;20045;-81
2023/02/02 07:26:13;;;;;;;51.97;48.78;;;;;;;4.99;100.00;101091.94;5060609;28;20044;-81
2023/02/02 07:28:40;;;;;;;51.15;48.00;;;;;;;5.20;100.00;101088.84;5064927;28;20127;-83
2023/02/02 07:31:15;;;;;;;51.05;47.85;;;;;;;5.21;100.00;101089.69;5060592;28;20053;-81
2023/02/02 07:33:43;;;;;;;50.30;47.40;;;;;;;4.79;100.00;101104.53;5061745;28;20045;-81
2023/02/02 07:36:10;;;;;;;52.42;49.30;;;;;;;5.07;100.00;101109.56;5064726;28;20102;-81
2023/02/02 07:38:37;;;;;;;49.45;46.65;;;;;;;5.12;100.00;101111.72;5065588;28;20048;-81
2023/02/02 07:41:05;;;;;;;48.83;46.00;;;;;;;4.96;100.00;101107.19;5059290;28;20075;-81
2023/02/02 07:43:33;;;;;;;53.22;49.58;;;;;;;5.11;100.00;101126.66;5056707;28;20055;-81
2023/02/02 07:46:01;;;;;;;49.65;46.63;;;;;;;5.27;100.00;101126.72;5050370;28;20040;-81
2023/02/02 07:48:30;;;;;;;48.28;45.47;;;;;;;5.35;100.00;101127.72;5055472;28;20124;-81
2023/02/02 07:50:59;;;;;;;47.25;44.50;;;;;;;5.14;100.00;101131.63;5052703;28;20053;-81
2023/02/02 07:53:26;;;;;;;47.55;44.50;;;;;;;5.17;100.00;101135.75;5045980;28;20056;-81
2023/02/02 07:55:53;;;;;;;47.92;44.97;;;;;;;5.39;100.00;101126.44;5061388;28;20040;-81
2023/02/02 07:58:20;;;;;;;50.13;47.03;;;;;;;5.63;100.00;101121.19;5058153;28;20036;-81
2023/02/02 08:00:46;;;;;;;49.22;46.38;;;;;;;5.25;100.00;101120.78;5034784;28;20109;-82
2023/02/02 08:03:13;;;;;;;49.95;46.72;;;;;;;5.34;100.00;101119.00;5051941;28;20049;-81
2023/02/02 08:05:41;;;;;;;49.63;46.53;;;;;;;5.92;100.00;101122.50;5064692;28;20103;-81
2023/02/02 08:08:08;;;;;;;48.30;45.35;;;;;;;5.67;100.00;101116.41;5073366;28;20052;-81
2023/02/02 08:10:35;;;;;;;51.15;48.15;;;;;;;5.33;100.00;101106.00;5062976;28;20130;-81
2023/02/02 08:13:01;;;;;;;49.65;46.55;;;;;;;5.62;100.00;101097.63;5067886;28;20044;-81
2023/02/02 08:15:28;;;;;;;49.67;46.58;;;;;;;5.80;100.00;101106.19;5060441;28;20502;-81
2023/02/02 08:17:55;;;;;;;48.13;45.33;;;;;;;6.08;100.00;101079.50;5064950;28;20044;-81
2023/02/02 08:20:21;;;;;;;48.45;45.75;;;;;;;5.61;100.00;101086.28;5065337;28;20111;-81
2023/02/02 08:22:49;;;;;;;47.88;45.17;;;;;;;5.53;100.00;101099.44;5070285;28;20057;-81
2023/02/02 08:25:16;;;;;;;49.63;46.72;;;;;;;5.96;100.00;101084.28;5063196;28;20041;-81
2023/02/02 08:27:43;;;;;;;50.42;47.15;;;;;;;5.73;100.00;101068.31;5055822;28;20052;-81
2023/02/02 08:30:11;;;;;;;50.80;47.80;;;;;;;5.86;100.00;101059.91;5070034;28;20105;-81
2023/02/02 08:32:39;;;;;;;50.05;47.15;;;;;;;5.57;100.00;101065.66;5064211;28;20048;-81
2023/02/02 08:35:06;;;;;;;48.05;45.35;;;;;;;6.28;100.00;101062.31;5060601;28;20067;-81
2023/02/02 08:37:33;;;;;;;48.85;46.05;;;;;;;6.16;100.00;101047.84;5064501;28;20498;-81
2023/02/02 08:40:01;;;;;;;50.10;47.10;;;;;;;6.34;100.00;101047.63;5065135;28;20040;-81
2023/02/02 08:42:28;;;;;;;49.20;45.90;;;;;;;6.70;100.00;101041.88;5064912;28;20045;-81
2023/02/02 08:44:54;;;;;;;48.75;45.95;;;;;;;6.78;100.00;101047.13;5063380;28;20595;-81
2023/02/02 08:47:21;;;;;;;48.10;45.22;;;;;;;6.38;100.00;101041.88;5067229;28;20041;-81
2023/02/02 08:49:48;;;;;;;49.22;46.35;;;;;;;6.05;100.00;101025.31;5062015;28;20083;-81
2023/02/02 08:52:15;;;;;;;51.95;48.83;;;;;;;6.03;100.00;101034.38;5064238;28;20151;-81
2023/02/02 08:54:41;;;;;;;49.95;46.97;;;;;;;6.49;100.00;101045.09;5060501;28;20045;-81
2023/02/02 08:57:09;;;;;;;51.70;48.65;;;;;;;7.09;100.00;101047.13;5064996;28;20567;-81
2023/02/02 08:59:36;;;;;;;51.90;48.85;;;;;;;6.51;100.00;101040.50;5064521;28;20040;-81
2023/02/02 09:02:03;;;;;;;50.03;47.22;;;;;;;6.54;100.00;101051.53;5062789;28;20518;-81
2023/02/02 09:04:30;;;;;;;50.17;47.38;;;;;;;6.49;100.00;101060.94;5066763;28;20106;-81
2023/02/02 09:06:56;;;;;;;52.72;49.72;;;;;;;6.17;100.00;101066.16;5068002;28;20398;-81
2023/02/02 09:09:23;;;;;;;51.20;48.40;;;;;;;5.94;100.00;101076.56;5064682;28;20049;-80
2023/02/02 09:11:50;;;;;;;49.88;46.97;;;;;;;6.13;100.00;101072.75;5064061;28;20488;-81
2023/02/02 09:14:18;;;;;;;53.38;49.70;;;;;;;6.21;100.00;101058.72;5062358;28;20103;-81
2023/02/02 09:16:44;;;;;;;50.28;47.20;;;;;;;6.45;100.00;101060.47;5066061;28;20113;-81
2023/02/02 09:19:12;;;;;;;51.90;48.78;;;;;;;6.29;100.00;101053.41;5067118;28;20121;-81
2023/02/02 09:21:39;;;;;;;50.75;47.67;;;;;;;6.59;100.00;101067.66;5060488;28;20056;-81
2023/02/02 09:27:27;;;;;;;50.92;48.03;;;;;;;5.92;100.00;101060.03;5055064;28;20048;-81
2023/02/02 09:29:55;;;;;;;50.85;47.85;;;;;;;6.08;100.00;101053.97;5070367;28;20107;-82
2023/02/02 09:32:22;;;;;;;55.13;51.75;;;;;;;5.96;100.00;101042.97;5064523;28;20105;-81
2023/02/02 09:34:49;;;;;;;54.03;50.83;;;;;;;6.06;100.00;101037.50;5060634;28;20045;-82
2023/02/02 09:37:15;;;;;;;53.65;50.45;;;;;;;6.05;100.00;101038.50;5065917;28;20098;-81
2023/02/02 09:39:42;;;;;;;55.00;50.92;;;;;;;6.18;100.00;101030.88;5060032;28;20126;-81
2023/02/02 09:42:28;;;;;;;52.38;49.17;;;;;;;6.31;100.00;101029.50;5062812;28;20057;-81
2023/02/02 09:45:01;;;;;;;53.92;50.92;;;;;;;6.19;100.00;101018.50;5066623;28;20116;-81
2023/02/02 09:47:42;;;;;;;51.03;47.95;;;;;;;6.81;100.00;101017.75;5068389;28;20056;-81
2023/02/02 09:50:18;;;;;;;51.72;48.72;;;;;;;7.43;100.00;100995.66;5066298;28;20053;-81
2023/02/02 09:52:49;;;;;;;52.72;49.53;;;;;;;7.79;100.00;100990.53;5066127;28;20049;-81
2023/02/02 09:55:23;;;;;;;53.75;50.45;;;;;;;8.61;100.00;101001.03;5064021;28;20115;-81
2023/02/02 09:57:54;;;;;;;48.97;46.17;;;;;;;7.89;100.00;100998.22;5063943;28;20562;-81
2023/02/02 10:00:30;;;;;;;48.97;45.83;;;;;;;8.29;100.00;100994.31;5064826;28;20053;-81
2023/02/02 10:03:00;;;;;;;47.05;44.35;;;;;;;7.65;100.00;100993.97;5069913;28;20071;-81
2023/02/02 10:05:36;;;;;;;49.88;46.70;;;;;;;8.36;100.00;100981.16;5066132;28;20103;-81
2023/02/02 10:08:08;;;;;;;48.50;45.80;;;;;;;8.92;100.00;100976.09;5075982;28;20040;-81
2023/02/02 10:10:41;;;;;;;49.65;46.53;;;;;;;9.03;100.00;100986.19;5066392;28;20049;-81
2023/02/02 10:13:14;;;;;;;47.10;44.47;;;;;;;8.52;100.00;100980.16;5056095;28;20494;-82
2023/02/02 10:15:50;;;;;;;47.47;44.58;;;;;;;8.27;100.00;100972.50;5059005;28;20048;-82
2023/02/02 10:18:21;;;;;;;48.50;45.60;;;;;;;7.89;100.00;100963.81;5060122;28;20049;-81
2023/02/02 10:20:54;;;;;;;48.63;45.83;;;;;;;7.67;100.00;100969.00;5058866;28;20052;-81
2023/02/02 10:23:26;;;;;;;49.70;46.90;;;;;;;7.47;100.00;100952.03;5058576;28;20048;-81
2023/02/02 10:25:57;;;;;;;;;;;;;;;7.20;100.00;100953.41;5059016;28;20110;-82
2023/02/02 10:28:38;;;;;;;49.10;46.50;;;;;;;7.27;100.00;100955.19;5058429;28;20021;-82
2023/02/02 10:31:18;;;;;;;49.10;46.20;;;;;;;7.40;100.00;100951.91;5061492;28;20131;-81
2023/02/02 10:33:57;;;;;;;48.10;45.20;;;;;;;7.32;100.00;100952.81;5059049;28;20045;-81
2023/02/02 10:36:31;;;;;;;49.42;46.53;;;;;;;7.68;100.00;100949.50;5063863;28;20048;-82
2023/02/02 10:39:03;;;;;;;48.35;45.55;;;;;;;7.36;100.00;100940.06;5061201;28;20626;-81
2023/02/02 10:41:37;;;;;;;49.75;46.95;;;;;;;7.44;100.00;100942.63;5061916;28;20036;-81
2023/02/02 10:44:13;;;;;;;50.95;48.15;;;;;;;7.48;100.00;100945.75;5064672;28;20049;-82
2023/02/02 10:46:45;;;;;;;47.53;44.83;;;;;;;7.39;100.00;100930.97;5064777;28;20055;-81
2023/02/02 10:49:23;;;;;;;49.10;46.37;;;;;;;7.46;100.00;100937.16;5059314;28;20114;-82
2023/02/02 10:51:56;;;;;;;49.35;46.75;;;;;;;7.30;100.00;100933.69;5057918;28;20075;-81
2023/02/02 10:54:37;;;;;;;49.45;46.80;;;;;;;7.68;100.00;100933.63;5058828;28;20052;-81
2023/02/02 10:57:07;;;;;;;50.15;47.22;;;;;;;7.59;100.00;100942.66;5059533;28;20120;-81
2023/02/02 10:59:39;;;;;;;48.42;45.72;;;;;;;7.58;100.00;100933.91;5057042;28;20044;-82
2023/02/02 11:02:09;;;;;;;;;;;;;;;7.57;100.00;100939.38;5056010;28;20053;-82
2023/02/02 11:07:21;;;;;;;49.25;46.35;;;;;;;7.34;100.00;100940.25;5059764;28;20111;-81
2023/02/02 11:09:48;;;;;;;49.35;46.55;;;;;;;7.17;100.00;100951.97;5055251;28;20106;-82
2023/02/02 11:12:22;;;;;;;47.38;44.67;;;;;;;7.18;100.00;100940.41;5055160;28;20056;-81
2023/02/02 11:14:56;;;;;;;48.72;45.92;;;;;;;7.34;100.00;100937.59;5055810;28;20048;-81
2023/02/02 11:17:25;;;;;;;49.22;46.33;;;;;;;7.26;100.00;100927.13;5058826;28;20103;-81
2023/02/02 11:19:54;;;;;;;49.65;46.78;;;;;;;7.09;100.00;100930.91;5055949;28;20494;-82
2023/02/02 11:22:27;;;;;;;50.88;47.78;;;;;;;7.20;100.00;100924.34;5053699;28;20482;-82
2023/02/02 11:24:55;;;;;;;48.97;46.17;;;;;;;7.20;100.00;100913.78;5061293;28;20048;-82
2023/02/02 11:27:24;;;;;;;50.03;47.25;;;;;;;7.11;100.00;100902.50;5061821;28;20048;-82
2023/02/02 11:29:52;;;;;;;47.83;44.95;;;;;;;7.13;100.00;100897.84;5056748;28;20044;-81
2023/02/02 11:32:25;;;;;;;48.10;45.15;;;;;;;7.14;100.00;100902.13;5065148;28;20048;-81
2023/02/02 11:35:14;;;;;;;49.00;46.20;;;;;;;7.29;100.00;100887.13;5052937;28;20498;-82
2023/02/02 11:37:53;;;;;;;49.97;47.08;;;;;;;7.41;100.00;100881.38;5059555;28;20468;-82
2023/02/02 11:40:34;;;;;;;49.00;46.00;;;;;;;7.36;100.00;100878.47;5059259;28;20102;-81